Time,TemperatureF,DewpointF,PressureIn,WindDirection,WindDirectionDegrees,WindSpeedMPH,WindSpeedGustMPH,Humidity,HourlyPrecipIn,Conditions,Clouds,dailyrainin,SolarRadiationWatts/m^2,SoftwareType,DateUTC
2013-08-31 01:52:00,70.0,48.0,-100.00,West,261,6.0,8.0,45,0.00,,,0.00,0.000000,,2013-08-31 08:52:00,
2013-08-31 02:02:00,70.0,48.0,-100.00,West,261,6.0,8.0,45,0.00,,,0.00,0.000000,,2013-08-31 09:02:00,
2013-08-31 02:12:00,70.0,48.0,-100.00,West,261,6.0,8.0,45,0.00,,,0.00,0.000000,,2013-08-31 09:12:00,
2013-08-31 02:23:00,70.0,48.0,-100.00,West,261,6.0,8.0,45,0.00,,,0.00,0.000000,,2013-08-31 09:23:00,
2013-08-31 02:53:00,69.0,47.0,-100.00,WSW,258,7.0,9.0,46,0.00,,,0.00,0.000000,,2013-08-31 09:53:00,
2013-08-31 03:03:00,69.0,47.0,-100.00,WSW,258,7.0,9.0,46,0.00,,,0.00,0.000000,,2013-08-31 10:03:00,
2013-08-31 03:23:00,69.0,47.0,-100.00,WSW,258,7.0,9.0,46,0.00,,,0.00,0.000000,,2013-08-31 10:23:00,
2013-08-31 03:53:00,68.0,48.0,-100.00,WSW,241,3.0,8.0,48,0.00,,,0.00,0.000000,,2013-08-31 10:53:00,
2013-08-31 04:02:00,68.0,48.0,-100.00,WSW,241,3.0,8.0,48,0.00,,,0.00,0.000000,,2013-08-31 11:02:00,
2013-08-31 04:12:00,68.0,48.0,-100.00,WSW,241,3.0,8.0,48,0.00,,,0.00,0.000000,,2013-08-31 11:12:00,
2013-08-31 04:21:00,68.0,48.0,-100.00,WSW,241,3.0,8.0,48,0.00,,,0.00,0.000000,,2013-08-31 11:21:00,
2013-08-31 06:52:00,65.0,47.0,-100.00,SW,236,13.0,17.0,53,-99.99,,,0.00,0.000000,,2013-08-31 13:52:00,
2013-08-31 07:01:00,65.0,47.0,-100.00,SW,236,13.0,17.0,53,-99.99,,,0.00,0.000000,,2013-08-31 14:01:00,
2013-08-31 07:11:00,65.0,47.0,-100.00,SW,236,13.0,17.0,53,-99.99,,,0.00,0.000000,,2013-08-31 14:11:00,
2013-08-31 07:21:00,65.0,47.0,-100.00,SW,236,13.0,17.0,53,-99.99,,,0.00,0.000000,,2013-08-31 14:21:00,
2013-08-31 07:52:00,65.0,48.0,-100.00,WSW,245,8.0,18.0,55,0.00,,,0.00,41.000000,,2013-08-31 14:52:00,
2013-08-31 08:01:00,65.0,48.0,-100.00,WSW,245,8.0,18.0,55,0.00,,,0.00,41.000000,,2013-08-31 15:01:00,
2013-08-31 08:11:00,65.0,48.0,-100.00,WSW,245,8.0,18.0,55,0.00,,,0.00,41.000000,,2013-08-31 15:11:00,
2013-08-31 08:22:00,65.0,48.0,-100.00,WSW,245,8.0,18.0,55,0.00,,,0.00,41.000000,,2013-08-31 15:22:00,
2013-08-31 09:25:00,67.0,48.0,-100.00,WSW,248,9.0,12.0,50,0.00,,,0.00,213.000000,,2013-08-31 16:25:00,
2013-08-31 09:52:00,71.0,49.0,-100.00,WSW,242,9.0,12.0,46,0.00,,,0.00,407.000000,,2013-08-31 16:52:00,
2013-08-31 10:03:00,71.0,49.0,-100.00,WSW,242,9.0,12.0,46,0.00,,,0.00,407.000000,,2013-08-31 17:03:00,
2013-08-31 10:23:00,71.0,49.0,-100.00,WSW,242,9.0,12.0,46,0.00,,,0.00,407.000000,,2013-08-31 17:23:00,
2013-08-31 10:53:00,74.0,49.0,-100.00,WSW,247,10.0,13.0,41,0.00,,,0.00,585.000000,,2013-08-31 17:53:00,
2013-08-31 11:02:00,74.0,49.0,-100.00,WSW,247,10.0,13.0,41,0.00,,,0.00,585.000000,,2013-08-31 18:02:00,
2013-08-31 11:12:00,74.0,49.0,-100.00,WSW,247,10.0,13.0,41,0.00,,,0.00,585.000000,,2013-08-31 18:12:00,
2013-08-31 11:21:00,74.0,49.0,-100.00,WSW,247,10.0,13.0,41,0.00,,,0.00,585.000000,,2013-08-31 18:21:00,
2013-08-31 11:52:00,75.0,50.0,-100.00,WSW,242,12.0,17.0,41,0.00,,,0.00,728.000000,,2013-08-31 18:52:00,
2013-08-31 12:01:00,75.0,50.0,-100.00,WSW,242,12.0,17.0,41,0.00,,,0.00,728.000000,,2013-08-31 19:01:00,
2013-08-31 12:12:00,75.0,50.0,-100.00,WSW,242,12.0,17.0,41,0.00,,,0.00,728.000000,,2013-08-31 19:12:00,
2013-08-31 12:21:00,75.0,50.0,-100.00,WSW,242,12.0,17.0,41,0.00,,,0.00,728.000000,,2013-08-31 19:21:00,
2013-08-31 12:52:00,78.0,52.0,-100.00,WSW,249,14.0,18.0,41,0.00,,,0.00,821.000000,,2013-08-31 19:52:00,
2013-08-31 13:02:00,78.0,52.0,-100.00,WSW,249,14.0,18.0,41,0.00,,,0.00,821.000000,,2013-08-31 20:02:00,
2013-08-31 13:12:00,78.0,52.0,-100.00,WSW,249,14.0,18.0,41,0.00,,,0.00,821.000000,,2013-08-31 20:12:00,
2013-08-31 13:22:00,78.0,52.0,-100.00,WSW,249,14.0,18.0,41,0.00,,,0.00,821.000000,,2013-08-31 20:22:00,
2013-08-31 13:52:00,80.0,47.0,-100.00,WSW,251,15.0,20.0,32,0.00,,,0.00,865.000000,,2013-08-31 20:52:00,
2013-08-31 14:02:00,80.0,47.0,-100.00,WSW,251,15.0,20.0,32,0.00,,,0.00,865.000000,,2013-08-31 21:02:00,
2013-08-31 14:12:00,80.0,47.0,-100.00,WSW,251,15.0,20.0,32,0.00,,,0.00,865.000000,,2013-08-31 21:12:00,
2013-08-31 14:21:00,80.0,47.0,-100.00,WSW,251,15.0,20.0,32,0.00,,,0.00,865.000000,,2013-08-31 21:21:00,
2013-08-31 14:54:00,82.0,48.0,-100.00,WSW,247,15.0,19.0,31,0.00,,,0.00,852.000000,,2013-08-31 21:54:00,
2013-08-31 15:04:00,82.0,48.0,-100.00,WSW,247,15.0,19.0,31,0.00,,,0.00,852.000000,,2013-08-31 22:04:00,
2013-08-31 15:13:00,82.0,48.0,-100.00,WSW,247,15.0,19.0,31,0.00,,,0.00,852.000000,,2013-08-31 22:13:00,
2013-08-31 15:23:00,82.0,48.0,-100.00,WSW,247,15.0,19.0,31,0.00,,,0.00,852.000000,,2013-08-31 22:23:00,
2013-08-31 15:53:00,78.0,48.0,-100.00,WSW,246,19.0,25.0,35,0.00,,,0.00,774.000000,,2013-08-31 22:53:00,
2013-08-31 16:03:00,78.0,48.0,-100.00,WSW,246,19.0,25.0,35,0.00,,,0.00,774.000000,,2013-08-31 23:03:00,
2013-08-31 16:12:00,78.0,48.0,-100.00,WSW,246,19.0,25.0,35,0.00,,,0.00,774.000000,,2013-08-31 23:12:00,
2013-08-31 16:22:00,78.0,48.0,-100.00,WSW,246,19.0,25.0,35,0.00,,,0.00,774.000000,,2013-08-31 23:22:00,
2013-08-31 16:52:00,76.0,46.0,-100.00,WSW,248,23.0,26.0,35,0.00,,,0.00,637.000000,,2013-08-31 23:52:00,
2013-08-31 17:01:00,76.0,46.0,-100.00,WSW,248,23.0,26.0,35,0.00,,,0.00,637.000000,,2013-09-01 00:01:00,
2013-08-31 17:11:00,76.0,46.0,-100.00,WSW,248,23.0,26.0,35,0.00,,,0.00,637.000000,,2013-09-01 00:11:00,
2013-08-31 17:21:00,76.0,46.0,-100.00,WSW,248,23.0,26.0,35,0.00,,,0.00,637.000000,,2013-09-01 00:21:00,
2013-08-31 17:52:00,75.0,47.0,-100.00,WSW,247,18.0,26.0,37,0.00,,,0.00,381.000000,,2013-09-01 00:52:00,
2013-08-31 18:02:00,75.0,47.0,-100.00,WSW,247,18.0,26.0,37,0.00,,,0.00,381.000000,,2013-09-01 01:02:00,
2013-08-31 18:11:00,75.0,47.0,-100.00,WSW,247,18.0,26.0,37,0.00,,,0.00,381.000000,,2013-09-01 01:11:00,
2013-08-31 18:21:00,75.0,47.0,-100.00,WSW,247,18.0,26.0,37,0.00,,,0.00,381.000000,,2013-09-01 01:21:00,
2013-08-31 18:52:00,71.0,47.0,-100.00,WSW,238,15.0,25.0,42,0.00,,,0.00,264.000000,,2013-09-01 01:52:00,
2013-08-31 19:02:00,71.0,47.0,-100.00,WSW,238,15.0,25.0,42,0.00,,,0.00,264.000000,,2013-09-01 02:02:00,
2013-08-31 19:12:00,71.0,47.0,-100.00,WSW,238,15.0,25.0,42,0.00,,,0.00,264.000000,,2013-09-01 02:12:00,
2013-08-31 19:22:00,71.0,47.0,-100.00,WSW,238,15.0,25.0,42,0.00,,,0.00,264.000000,,2013-09-01 02:22:00,
2013-08-31 20:54:00,65.0,50.0,-100.00,WSW,237,13.0,20.0,58,0.00,,,0.00,2.000000,,2013-09-01 03:54:00,
2013-08-31 21:03:00,-999.0,-99.9,-100.00,WSW,237,13.0,20.0,-999,-99.99,,,-99.99,2.000000,,2013-09-01 04:03:00,
2013-08-31 21:14:00,65.0,50.0,-100.00,WSW,237,13.0,20.0,58,0.00,,,0.00,2.000000,,2013-09-01 04:14:00,
2013-08-31 21:24:00,65.0,50.0,-100.00,WSW,237,13.0,20.0,58,0.00,,,0.00,2.000000,,2013-09-01 04:24:00,
2013-08-31 23:52:00,60.0,47.0,-100.00,WSW,244,15.0,19.0,63,0.00,,,0.00,0.000000,,2013-09-01 06:52:00,